createdAt,value
2019-01-03T00:00:52.467Z,0.06
2019-01-03T00:01:52.416Z,0
2019-01-03T00:02:52.567Z,0
2019-01-03T00:03:52.454Z,0
2019-01-03T00:04:52.732Z,-0.06
2019-01-03T00:05:52.554Z,0
2019-01-03T00:06:52.491Z,-0.06
2019-01-03T00:07:52.582Z,-0.06
2019-01-03T00:08:53.658Z,-0.06
2019-01-03T00:09:52.768Z,-0.06
2019-01-03T00:10:52.535Z,-0.13
2019-01-03T00:11:52.955Z,-0.13
2019-01-03T00:12:52.625Z,-0.13
2019-01-03T00:13:52.927Z,-0.13
2019-01-03T00:14:52.485Z,-0.25
2019-01-03T00:15:52.644Z,-0.25
2019-01-03T00:16:52.580Z,-0.31
2019-01-03T00:17:52.546Z,-0.31
2019-01-03T00:18:52.694Z,-0.37
2019-01-03T00:19:52.412Z,-0.44
2019-01-03T00:20:52.503Z,-0.44
2019-01-03T00:21:52.541Z,-0.37
2019-01-03T00:22:52.684Z,-0.44
2019-01-03T00:23:52.578Z,-0.44
2019-01-03T00:24:52.464Z,-0.44
2019-01-03T00:25:53.219Z,-0.37
2019-01-03T00:26:54.251Z,-0.5
2019-01-03T00:27:52.380Z,-0.44
2019-01-03T00:28:52.390Z,-0.5
2019-01-03T00:29:52.418Z,-0.5
2019-01-03T00:30:52.558Z,-0.5
2019-01-03T00:31:52.512Z,-0.56
2019-01-03T00:32:52.433Z,-0.56
2019-01-03T00:33:52.492Z,-0.5
2019-01-03T00:34:52.473Z,-0.56
2019-01-03T00:35:52.593Z,-0.56
2019-01-03T00:36:52.369Z,-0.56
2019-01-03T00:37:52.484Z,-0.56
2019-01-03T00:38:52.534Z,-0.56
2019-01-03T00:39:52.353Z,-0.56
2019-01-03T00:40:52.735Z,-0.56
2019-01-03T00:41:52.447Z,-0.56
2019-01-03T00:42:52.404Z,-0.62
2019-01-03T00:43:52.405Z,-0.56
2019-01-03T00:44:52.452Z,-0.62
2019-01-03T00:45:52.608Z,-0.56
2019-01-03T00:46:52.552Z,-0.56
2019-01-03T00:47:52.521Z,-0.5
2019-01-03T00:48:52.488Z,-0.56
2019-01-03T00:49:52.365Z,-0.56
2019-01-03T00:50:52.549Z,-0.5
2019-01-03T00:51:52.556Z,-0.5
2019-01-03T00:52:52.543Z,-0.56
2019-01-03T00:53:52.601Z,-0.5
2019-01-03T00:54:52.518Z,-0.5
2019-01-03T00:55:52.357Z,-0.56
2019-01-03T00:56:52.453Z,-0.56
2019-01-03T00:57:52.529Z,-0.56
2019-01-03T00:58:52.327Z,-0.56
2019-01-03T00:59:52.690Z,-0.56
2019-01-03T01:00:52.428Z,-0.62
2019-01-03T01:01:52.714Z,-0.62
2019-01-03T01:02:52.475Z,-0.62
2019-01-03T01:03:52.809Z,-0.62
2019-01-03T01:04:52.517Z,-0.62
2019-01-03T01:05:52.334Z,-0.62
2019-01-03T01:06:52.404Z,-0.69
2019-01-03T01:07:52.461Z,-0.62
2019-01-03T01:08:52.598Z,-0.69
2019-01-03T01:09:52.366Z,-0.62
2019-01-03T01:10:52.645Z,-0.69
2019-01-03T01:11:52.726Z,-0.69
2019-01-03T01:12:52.588Z,-0.69
2019-01-03T01:13:52.295Z,-0.69
2019-01-03T01:14:52.361Z,-0.75
2019-01-03T01:15:52.570Z,-0.75
2019-01-03T01:16:52.452Z,-0.75
2019-01-03T01:17:52.346Z,-0.75
2019-01-03T01:18:52.340Z,-0.75
2019-01-03T01:19:52.420Z,-0.75
2019-01-03T01:20:52.306Z,-0.75
2019-01-03T01:21:52.481Z,-0.75
2019-01-03T01:22:52.318Z,-0.75
2019-01-03T01:23:52.614Z,-0.75
2019-01-03T01:24:52.357Z,-0.81
2019-01-03T01:25:52.557Z,-0.75
2019-01-03T01:26:52.311Z,-0.75
2019-01-03T01:27:52.355Z,-0.75
2019-01-03T01:28:52.380Z,-0.75
2019-01-03T01:29:52.334Z,-0.75
2019-01-03T01:30:52.388Z,-0.75
2019-01-03T01:31:52.381Z,-0.75
2019-01-03T01:32:52.391Z,-0.75
2019-01-03T01:33:52.291Z,-0.75
2019-01-03T01:34:52.315Z,-0.75
2019-01-03T01:35:52.274Z,-0.75
2019-01-03T01:36:52.265Z,-0.75
2019-01-03T01:37:52.309Z,-0.69
2019-01-03T01:38:52.311Z,-0.75
2019-01-03T01:39:52.736Z,-0.75
2019-01-03T01:40:52.275Z,-0.75
2019-01-03T01:41:52.364Z,-0.75
2019-01-03T01:42:52.270Z,-0.81
2019-01-03T01:43:52.535Z,-0.81
2019-01-03T01:44:52.299Z,-0.81
2019-01-03T01:45:52.291Z,-0.88
2019-01-03T01:46:52.542Z,-0.88
2019-01-03T01:47:52.737Z,-0.81
2019-01-03T01:48:52.714Z,-0.88
2019-01-03T01:49:52.389Z,-0.88
2019-01-03T01:50:52.383Z,-0.94
2019-01-03T01:51:52.351Z,-0.88
2019-01-03T01:52:53.114Z,-0.94
2019-01-03T01:53:53.381Z,-0.94
2019-01-03T01:54:52.280Z,-0.94
2019-01-03T01:55:53.096Z,-0.94
2019-01-03T01:56:52.305Z,-1
2019-01-03T01:57:52.428Z,-0.94
2019-01-03T01:58:52.463Z,-1
2019-01-03T01:59:52.544Z,-1
2019-01-03T02:00:52.413Z,-1
2019-01-03T02:01:52.727Z,-1
2019-01-03T02:02:52.320Z,-1.06
2019-01-03T02:03:52.373Z,-1.06
2019-01-03T02:04:52.291Z,-1.12
2019-01-03T02:05:52.329Z,-1.12
2019-01-03T02:06:52.627Z,-1.12
2019-01-03T02:07:52.449Z,-1.12
2019-01-03T02:08:52.050Z,-1.12
2019-01-03T02:09:53.044Z,-1.06
2019-01-03T02:10:52.336Z,-1.06
2019-01-03T02:11:52.487Z,-1.06
2019-01-03T02:12:52.671Z,-1.12
2019-01-03T02:13:52.560Z,-1.06
2019-01-03T02:14:52.259Z,-1.12
2019-01-03T02:15:52.206Z,-1
2019-01-03T02:16:52.464Z,-1.06
2019-01-03T02:17:52.444Z,-1.06
2019-01-03T02:18:52.401Z,-1.06
2019-01-03T02:19:52.404Z,-1
2019-01-03T02:20:52.432Z,-1
2019-01-03T02:21:52.580Z,-1
2019-01-03T02:22:52.353Z,-1
2019-01-03T02:23:53.108Z,-1
2019-01-03T02:24:52.836Z,-1
2019-01-03T02:25:52.376Z,-1.06
2019-01-03T02:26:52.491Z,-1.12
2019-01-03T02:27:52.547Z,-1.12
2019-01-03T02:28:52.403Z,-1.19
2019-01-03T02:29:52.389Z,-1.19
2019-01-03T02:30:53.153Z,-1.19
2019-01-03T02:31:52.476Z,-1.19
2019-01-03T02:32:52.240Z,-1.19
2019-01-03T02:33:52.625Z,-1.19
2019-01-03T02:34:52.458Z,-1.25
2019-01-03T02:35:52.195Z,-1.19
2019-01-03T02:36:52.897Z,-1.19
2019-01-03T02:37:52.232Z,-1.19
2019-01-03T02:38:53.049Z,-1.19
2019-01-03T02:39:52.635Z,-1.19
2019-01-03T02:40:52.511Z,-1.19
2019-01-03T02:41:52.410Z,-1.19
2019-01-03T02:42:52.805Z,-1.19
2019-01-03T02:43:52.343Z,-1.19
2019-01-03T02:44:52.262Z,-1.19
2019-01-03T02:45:52.447Z,-1.12
2019-01-03T02:46:52.594Z,-1.19
2019-01-03T02:47:52.607Z,-1.12
2019-01-03T02:48:52.355Z,-1.19
2019-01-03T02:49:52.349Z,-1.19
2019-01-03T02:50:52.385Z,-1.19
2019-01-03T02:51:52.326Z,-1.12
2019-01-03T02:52:52.598Z,-1.19
2019-01-03T02:53:52.732Z,-1.12
2019-01-03T02:54:52.463Z,-1.19
2019-01-03T02:55:52.233Z,-1.12
2019-01-03T02:56:52.294Z,-1.12
2019-01-03T02:57:52.213Z,-1.12
2019-01-03T02:58:52.678Z,-1.19
2019-01-03T02:59:52.209Z,-1.19
2019-01-03T03:00:52.512Z,-1.19
2019-01-03T03:01:52.396Z,-1.19
2019-01-03T03:02:52.552Z,-1.25
2019-01-03T03:03:52.317Z,-1.25
2019-01-03T03:04:52.773Z,-1.31
2019-01-03T03:05:52.436Z,-1.31
2019-01-03T03:06:52.825Z,-1.37
2019-01-03T03:07:52.502Z,-1.37
2019-01-03T03:08:52.341Z,-1.44
2019-01-03T03:09:52.498Z,-1.5
2019-01-03T03:10:52.660Z,-1.56
2019-01-03T03:11:52.227Z,-1.62
2019-01-03T03:12:52.232Z,-1.56
2019-01-03T03:13:52.272Z,-1.56
2019-01-03T03:14:52.171Z,-1.56
2019-01-03T03:15:52.198Z,-1.56
2019-01-03T03:16:52.529Z,-1.5
2019-01-03T03:17:52.387Z,-1.5
2019-01-03T03:18:52.182Z,-1.5
2019-01-03T03:19:52.160Z,-1.5
2019-01-03T03:20:52.363Z,-1.5
2019-01-03T03:21:52.380Z,-1.44
2019-01-03T03:22:52.202Z,-1.5
2019-01-03T03:23:52.897Z,-1.44
2019-01-03T03:24:53.888Z,-1.44
2019-01-03T03:25:52.206Z,-1.44
2019-01-03T03:26:52.405Z,-1.44
2019-01-03T03:27:52.293Z,-1.44
2019-01-03T03:28:52.500Z,-1.5
2019-01-03T03:29:52.100Z,-1.44
2019-01-03T03:30:52.405Z,-1.44
2019-01-03T03:31:52.155Z,-1.5
2019-01-03T03:32:52.481Z,-1.44
2019-01-03T03:33:52.645Z,-1.44
2019-01-03T03:34:52.378Z,-1.44
2019-01-03T03:35:52.445Z,-1.5
2019-01-03T03:36:52.263Z,-1.56
2019-01-03T03:37:52.178Z,-1.56
2019-01-03T03:38:52.488Z,-1.56
2019-01-03T03:39:52.437Z,-1.56
2019-01-03T03:40:51.907Z,-1.62
2019-01-03T03:41:52.100Z,-1.62
2019-01-03T03:42:52.269Z,-1.69
2019-01-03T03:43:52.514Z,-1.75
2019-01-03T03:44:52.158Z,-1.75
2019-01-03T03:45:52.882Z,-1.75
2019-01-03T03:46:52.614Z,-1.75
2019-01-03T03:47:53.020Z,-1.75
2019-01-03T03:48:52.167Z,-1.75
2019-01-03T03:49:52.251Z,-1.75
2019-01-03T03:50:52.350Z,-1.69
2019-01-03T03:51:52.325Z,-1.75
2019-01-03T03:52:52.371Z,-1.69
2019-01-03T03:53:52.271Z,-1.75
2019-01-03T03:54:52.449Z,-1.75
2019-01-03T03:55:52.116Z,-1.75
2019-01-03T03:56:52.226Z,-1.81
2019-01-03T03:57:52.525Z,-1.81
2019-01-03T03:58:52.214Z,-1.81
2019-01-03T03:59:52.344Z,-1.81
2019-01-03T04:00:52.457Z,-1.75
2019-01-03T04:01:52.282Z,-1.75
2019-01-03T04:02:52.127Z,-1.75
2019-01-03T04:03:52.240Z,-1.75
2019-01-03T04:04:52.286Z,-1.75
2019-01-03T04:05:52.385Z,-1.69
2019-01-03T04:06:52.438Z,-1.69
2019-01-03T04:07:52.355Z,-1.69
2019-01-03T04:08:52.295Z,-1.69
2019-01-03T04:09:52.198Z,-1.75
2019-01-03T04:10:52.581Z,-1.75
2019-01-03T04:11:52.335Z,-1.81
2019-01-03T04:12:52.400Z,-1.75
2019-01-03T04:13:52.416Z,-1.75
2019-01-03T04:14:52.969Z,-1.75
2019-01-03T04:15:52.258Z,-1.69
2019-01-03T04:16:52.298Z,-1.69
2019-01-03T04:17:52.401Z,-1.69
2019-01-03T04:18:52.246Z,-1.62
2019-01-03T04:19:52.182Z,-1.62
2019-01-03T04:20:52.255Z,-1.62
2019-01-03T04:21:52.132Z,-1.69
2019-01-03T04:22:52.323Z,-1.69
2019-01-03T04:23:52.123Z,-1.69
2019-01-03T04:24:52.815Z,-1.69
2019-01-03T04:25:52.160Z,-1.62
2019-01-03T04:26:52.300Z,-1.62
2019-01-03T04:27:52.890Z,-1.62
2019-01-03T04:28:52.297Z,-1.69
2019-01-03T04:29:52.174Z,-1.69
2019-01-03T04:30:52.300Z,-1.69
2019-01-03T04:31:52.171Z,-1.69
2019-01-03T04:32:52.266Z,-1.69
2019-01-03T04:33:52.379Z,-1.69
2019-01-03T04:34:52.393Z,-1.69
2019-01-03T04:35:52.469Z,-1.69
2019-01-03T04:36:52.153Z,-1.69
2019-01-03T04:37:52.295Z,-1.69
2019-01-03T04:38:52.881Z,-1.69
2019-01-03T04:39:52.177Z,-1.69
2019-01-03T04:40:52.445Z,-1.75
2019-01-03T04:41:52.134Z,-1.75
2019-01-03T04:42:52.688Z,-1.75
2019-01-03T04:43:52.306Z,-1.75
2019-01-03T04:44:52.402Z,-1.69
2019-01-03T04:45:52.212Z,-1.75
2019-01-03T04:46:52.056Z,-1.69
2019-01-03T04:47:52.212Z,-1.75
2019-01-03T04:48:52.139Z,-1.75
2019-01-03T04:49:52.162Z,-1.69
2019-01-03T04:50:52.220Z,-1.75
2019-01-03T04:51:52.140Z,-1.75
2019-01-03T04:52:52.094Z,-1.81
2019-01-03T04:53:52.106Z,-1.81
2019-01-03T04:54:52.132Z,-1.81
2019-01-03T04:55:52.090Z,-1.81
2019-01-03T04:56:52.249Z,-1.81
2019-01-03T04:57:52.271Z,-1.87
2019-01-03T04:58:52.248Z,-1.75
2019-01-03T04:59:52.232Z,-1.81
2019-01-03T05:00:52.221Z,-1.87
2019-01-03T05:01:52.131Z,-1.87
2019-01-03T05:02:52.108Z,-1.87
2019-01-03T05:03:52.198Z,-1.94
2019-01-03T05:04:52.082Z,-1.94
2019-01-03T05:05:52.087Z,-1.94
2019-01-03T05:06:52.012Z,-1.94
2019-01-03T05:07:52.176Z,-1.94
2019-01-03T05:08:52.196Z,-1.94
2019-01-03T05:09:52.157Z,-1.94
2019-01-03T05:10:52.293Z,-1.94
2019-01-03T05:11:52.135Z,-2
2019-01-03T05:12:52.005Z,-2
2019-01-03T05:13:51.963Z,-2
2019-01-03T05:14:52.189Z,-2
2019-01-03T05:15:52.299Z,-2
2019-01-03T05:16:52.472Z,-2
2019-01-03T05:17:52.134Z,-2
2019-01-03T05:18:51.991Z,-1.94
2019-01-03T05:19:52.271Z,-2
2019-01-03T05:20:52.023Z,-2
2019-01-03T05:21:52.193Z,-2
2019-01-03T05:22:52.315Z,-2
2019-01-03T05:23:58.098Z,-1.94
2019-01-03T05:24:52.404Z,-2
2019-01-03T05:25:52.089Z,-1.94
2019-01-03T05:26:51.966Z,-1.94
2019-01-03T05:27:52.444Z,-1.94
2019-01-03T05:28:52.735Z,-1.87
2019-01-03T05:29:52.263Z,-1.87
2019-01-03T05:30:52.124Z,-1.87
2019-01-03T05:31:52.255Z,-1.81
2019-01-03T05:32:52.314Z,-1.87
2019-01-03T05:33:51.953Z,-1.87
2019-01-03T05:34:51.961Z,-1.87
2019-01-03T05:35:52.330Z,-1.94
2019-01-03T05:36:52.182Z,-1.87
2019-01-03T05:37:52.230Z,-1.87
2019-01-03T05:38:52.175Z,-1.94
2019-01-03T05:39:51.971Z,-1.94
2019-01-03T05:40:51.927Z,-2
2019-01-03T05:41:52.273Z,-2
2019-01-03T05:42:52.457Z,-2
2019-01-03T05:43:51.982Z,-2
2019-01-03T05:44:52.226Z,-2
2019-01-03T05:45:52.176Z,-1.94
2019-01-03T05:46:52.447Z,-1.94
2019-01-03T05:47:52.114Z,-1.94
2019-01-03T05:48:52.160Z,-1.94
2019-01-03T05:49:52.119Z,-1.94
2019-01-03T05:50:51.763Z,-1.94
2019-01-03T05:51:52.687Z,-1.94
2019-01-03T05:52:51.934Z,-1.94
2019-01-03T05:53:52.090Z,-1.94
2019-01-03T05:54:52.224Z,-1.94
2019-01-03T05:55:52.159Z,-1.94
2019-01-03T05:56:51.945Z,-1.94
2019-01-03T05:57:52.177Z,-1.87
2019-01-03T05:58:52.812Z,-1.87
2019-01-03T05:59:52.119Z,-1.81
2019-01-03T06:00:51.943Z,-1.87
2019-01-03T06:01:52.762Z,-1.81
2019-01-03T06:02:51.972Z,-1.81
2019-01-03T06:03:52.288Z,-1.81
2019-01-03T06:04:52.270Z,-1.81
2019-01-03T06:05:51.906Z,-1.75
2019-01-03T06:06:52.476Z,-1.75
2019-01-03T06:07:52.265Z,-1.75
2019-01-03T06:08:52.080Z,-1.69
2019-01-03T06:09:51.907Z,-1.75
2019-01-03T06:10:52.003Z,-1.75
2019-01-03T06:11:52.106Z,-1.69
2019-01-03T06:12:52.486Z,-1.69
2019-01-03T06:13:52.168Z,-1.62
2019-01-03T06:14:52.554Z,-1.56
2019-01-03T06:15:52.594Z,-1.62
2019-01-03T06:16:52.258Z,-1.56
2019-01-03T06:17:52.033Z,-1.56
2019-01-03T06:18:51.962Z,-1.56
2019-01-03T06:19:52.123Z,-1.56
2019-01-03T06:20:52.131Z,-1.56
2019-01-03T06:21:52.122Z,-1.5
2019-01-03T06:22:52.454Z,-1.56
2019-01-03T06:23:52.173Z,-1.56
2019-01-03T06:24:52.148Z,-1.56
2019-01-03T06:25:51.891Z,-1.5
2019-01-03T06:26:52.015Z,-1.5
2019-01-03T06:27:52.104Z,-1.5
2019-01-03T06:28:52.194Z,-1.5
2019-01-03T06:29:51.852Z,-1.5
2019-01-03T06:30:52.377Z,-1.44
2019-01-03T06:31:51.985Z,-1.44
2019-01-03T06:32:52.385Z,-1.44
2019-01-03T06:33:51.989Z,-1.44
2019-01-03T06:34:51.927Z,-1.44
2019-01-03T06:35:52.132Z,-1.44
2019-01-03T06:36:51.984Z,-1.44
2019-01-03T06:37:51.844Z,-1.44
2019-01-03T06:38:51.839Z,-1.37
2019-01-03T06:39:51.822Z,-1.37
2019-01-03T06:40:51.917Z,-1.31
2019-01-03T06:41:51.845Z,-1.37
2019-01-03T06:42:52.283Z,-1.31
2019-01-03T06:43:51.860Z,-1.37
2019-01-03T06:44:51.911Z,-1.31
2019-01-03T06:45:51.883Z,-1.31
2019-01-03T06:46:51.880Z,-1.31
2019-01-03T06:47:52.314Z,-1.25
2019-01-03T06:48:52.093Z,-1.25
2019-01-03T06:49:51.847Z,-1.25
2019-01-03T06:50:52.097Z,-1.25
2019-01-03T06:51:52.112Z,-1.31
2019-01-03T06:52:51.874Z,-1.31
2019-01-03T06:53:51.976Z,-1.31
2019-01-03T06:54:52.114Z,-1.25
2019-01-03T06:55:52.506Z,-1.25
2019-01-03T06:56:51.983Z,-1.19
2019-01-03T06:57:52.236Z,-1.19
2019-01-03T06:58:51.964Z,-1.19
2019-01-03T06:59:51.870Z,-1.19
2019-01-03T07:00:52.196Z,-1.19
2019-01-03T07:01:51.985Z,-1.12
2019-01-03T07:02:52.095Z,-1.12
2019-01-03T07:03:52.325Z,-1.12
2019-01-03T07:04:51.905Z,-1.12
2019-01-03T07:05:52.064Z,-1.12
2019-01-03T07:06:52.173Z,-1.12
2019-01-03T07:07:52.059Z,-1.12
2019-01-03T07:08:51.844Z,-1.12
2019-01-03T07:09:51.784Z,-1.12
2019-01-03T07:10:52.252Z,-1.12
2019-01-03T07:11:51.933Z,-1.12
2019-01-03T07:12:52.095Z,-1.06
2019-01-03T07:13:52.215Z,-1.06
2019-01-03T07:14:51.842Z,-1.06
2019-01-03T07:15:52.713Z,-1.06
2019-01-03T07:16:52.167Z,-1.06
2019-01-03T07:17:51.894Z,-1.06
2019-01-03T07:18:51.856Z,-1.06
2019-01-03T07:19:52.162Z,-1
2019-01-03T07:20:52.064Z,-1
2019-01-03T07:21:52.261Z,-1
2019-01-03T07:22:51.909Z,-1
2019-01-03T07:23:51.811Z,-0.94
2019-01-03T07:24:52.045Z,-0.94
2019-01-03T07:25:53.586Z,-1
2019-01-03T07:26:52.205Z,-0.94
2019-01-03T07:27:52.168Z,-0.94
2019-01-03T07:28:56.124Z,-0.94
2019-01-03T07:29:52.167Z,-0.94
2019-01-03T07:30:52.660Z,-0.94
2019-01-03T07:31:51.821Z,-0.94
2019-01-03T07:32:51.894Z,-0.94
2019-01-03T07:33:52.123Z,-0.94
2019-01-03T07:34:52.166Z,-0.94
2019-01-03T07:35:52.137Z,-0.94
2019-01-03T07:36:52.109Z,-0.94
2019-01-03T07:37:51.775Z,-1
2019-01-03T07:38:53.114Z,-0.94
2019-01-03T07:39:51.894Z,-0.94
2019-01-03T07:40:52.000Z,-1
2019-01-03T07:41:51.963Z,-1
2019-01-03T07:42:52.128Z,-0.94
2019-01-03T07:43:52.158Z,-0.94
2019-01-03T07:44:51.896Z,-1
2019-01-03T07:45:51.787Z,-1
2019-01-03T07:46:52.062Z,-0.94
2019-01-03T07:47:52.144Z,-1
2019-01-03T07:48:52.133Z,-0.94
2019-01-03T07:49:51.861Z,-1
2019-01-03T07:50:51.788Z,-0.94
2019-01-03T07:51:51.950Z,-1
2019-01-03T07:52:52.273Z,-1
2019-01-03T07:53:51.835Z,-1
2019-01-03T07:54:52.607Z,-1
2019-01-03T07:55:52.383Z,-1
2019-01-03T07:56:51.741Z,-0.94
2019-01-03T07:57:51.767Z,-1
2019-01-03T07:58:52.114Z,-0.94
2019-01-03T07:59:51.937Z,-0.94
2019-01-03T08:00:52.003Z,-0.94
2019-01-03T08:01:51.714Z,-0.94
2019-01-03T08:02:52.085Z,-0.94
2019-01-03T08:03:52.212Z,-0.94
2019-01-03T08:04:51.967Z,-0.94
2019-01-03T08:05:51.790Z,-0.94
2019-01-03T08:06:52.618Z,-0.94
2019-01-03T08:07:51.779Z,-0.94
2019-01-03T08:08:52.364Z,-0.94
2019-01-03T08:09:51.946Z,-0.94
2019-01-03T08:10:51.853Z,-0.94
2019-01-03T08:11:51.948Z,-0.94
2019-01-03T08:12:51.730Z,-0.94
2019-01-03T08:13:51.907Z,-0.94
2019-01-03T08:14:51.894Z,-0.94
2019-01-03T08:15:52.813Z,-0.94
2019-01-03T08:16:51.954Z,-0.94
2019-01-03T08:17:51.797Z,-0.88
2019-01-03T08:18:52.072Z,-0.88
2019-01-03T08:19:51.959Z,-0.88
2019-01-03T08:20:51.693Z,-0.88
2019-01-03T08:21:51.737Z,-0.88
2019-01-03T08:22:52.098Z,-0.88
2019-01-03T08:23:52.210Z,-0.88
2019-01-03T08:24:52.115Z,-0.88
2019-01-03T08:25:52.268Z,-0.88
2019-01-03T08:26:52.109Z,-0.88
2019-01-03T08:27:51.778Z,-0.94
2019-01-03T08:28:51.802Z,-0.88
2019-01-03T08:29:51.726Z,-0.94
2019-01-03T08:30:51.745Z,-0.88
2019-01-03T08:31:51.859Z,-0.88
2019-01-03T08:32:51.726Z,-0.81
2019-01-03T08:33:51.750Z,-0.81
2019-01-03T08:34:51.706Z,-0.81
2019-01-03T08:35:51.835Z,-0.88
2019-01-03T08:36:51.842Z,-0.81
2019-01-03T08:37:51.936Z,-0.81
2019-01-03T08:38:52.502Z,-0.81
2019-01-03T08:39:52.008Z,-0.75
2019-01-03T08:40:51.922Z,-0.81
2019-01-03T08:41:52.068Z,-0.75
2019-01-03T08:42:51.720Z,-0.75
2019-01-03T08:43:53.242Z,-0.75
2019-01-03T08:44:52.112Z,-0.75
2019-01-03T08:45:52.192Z,-0.75
2019-01-03T08:46:51.760Z,-0.75
2019-01-03T08:47:51.623Z,-0.75
2019-01-03T08:48:51.803Z,-0.75
2019-01-03T08:49:51.675Z,-0.75
2019-01-03T08:50:51.858Z,-0.69
2019-01-03T08:51:51.676Z,-0.69
2019-01-03T08:52:52.040Z,-0.62
2019-01-03T08:53:51.709Z,-0.62
2019-01-03T08:54:52.176Z,-0.62
2019-01-03T08:55:51.769Z,-0.62
2019-01-03T08:56:52.011Z,-0.56
2019-01-03T08:57:51.691Z,-0.56
2019-01-03T08:58:51.933Z,-0.5
2019-01-03T08:59:51.776Z,-0.5
2019-01-03T09:00:52.074Z,-0.44
2019-01-03T09:01:51.639Z,-0.5
2019-01-03T09:02:51.941Z,-0.44
2019-01-03T09:03:51.840Z,-0.44
2019-01-03T09:04:52.688Z,-0.37
2019-01-03T09:05:51.695Z,-0.44
2019-01-03T09:06:51.620Z,-0.37
2019-01-03T09:07:51.672Z,-0.44
2019-01-03T09:08:51.651Z,-0.37
2019-01-03T09:09:51.659Z,-0.37
2019-01-03T09:10:52.074Z,-0.37
2019-01-03T09:11:51.734Z,-0.37
2019-01-03T09:12:51.702Z,-0.31
2019-01-03T09:13:52.131Z,-0.37
2019-01-03T09:14:52.151Z,-0.37
2019-01-03T09:15:51.904Z,-0.37
2019-01-03T09:16:51.668Z,-0.37
2019-01-03T09:17:51.917Z,-0.31
2019-01-03T09:18:51.641Z,-0.31
2019-01-03T09:19:51.822Z,-0.31
2019-01-03T09:20:52.280Z,-0.31
2019-01-03T09:21:51.963Z,-0.31
2019-01-03T09:22:51.799Z,-0.31
2019-01-03T09:23:51.889Z,-0.31
2019-01-03T09:24:52.331Z,-0.31
2019-01-03T09:25:51.703Z,-0.31
2019-01-03T09:26:51.765Z,-0.25
2019-01-03T09:27:51.832Z,-0.31
2019-01-03T09:28:52.505Z,-0.31
2019-01-03T09:29:51.870Z,-0.31
2019-01-03T09:30:51.673Z,-0.25
2019-01-03T09:31:51.780Z,-0.25
2019-01-03T09:32:51.631Z,-0.25
2019-01-03T09:33:51.690Z,-0.25
2019-01-03T09:34:51.693Z,-0.25
2019-01-03T09:35:51.614Z,-0.25
2019-01-03T09:36:51.758Z,-0.25
2019-01-03T09:37:51.773Z,-0.25
2019-01-03T09:38:52.081Z,-0.19
2019-01-03T09:39:52.074Z,-0.19
2019-01-03T09:40:51.999Z,-0.13
2019-01-03T09:41:52.099Z,-0.13
2019-01-03T09:42:55.736Z,-0.06
2019-01-03T09:43:51.668Z,-0.06
2019-01-03T09:44:52.145Z,-0.06
2019-01-03T09:45:51.798Z,0
2019-01-03T09:46:51.873Z,0
2019-01-03T09:47:54.169Z,0
2019-01-03T09:48:51.785Z,0
2019-01-03T09:49:53.647Z,0
2019-01-03T09:50:51.838Z,0.06
2019-01-03T09:51:51.631Z,0.06
2019-01-03T09:52:51.849Z,0.06
2019-01-03T09:53:51.609Z,0
2019-01-03T09:54:51.810Z,0.06
2019-01-03T09:55:52.110Z,0.06
2019-01-03T09:56:52.197Z,0.06
2019-01-03T09:57:51.795Z,0.06
2019-01-03T09:58:52.094Z,0.13
2019-01-03T09:59:51.591Z,0.06
2019-01-03T10:00:52.142Z,0.13
2019-01-03T10:01:51.755Z,0.06
2019-01-03T10:02:51.597Z,0.13
2019-01-03T10:03:51.798Z,0.06
2019-01-03T10:04:51.697Z,0.13
2019-01-03T10:05:51.617Z,0.06
2019-01-03T10:06:51.636Z,0.13
2019-01-03T10:07:52.055Z,0.13
2019-01-03T10:08:52.816Z,0.19
2019-01-03T10:09:51.659Z,0.13
2019-01-03T10:10:51.548Z,0.19
2019-01-03T10:11:51.589Z,0.19
2019-01-03T10:12:51.644Z,0.25
2019-01-03T10:13:51.555Z,0.25
2019-01-03T10:14:51.610Z,0.25
2019-01-03T10:15:51.601Z,0.25
2019-01-03T10:16:51.809Z,0.25
2019-01-03T10:17:51.538Z,0.25
2019-01-03T10:18:52.133Z,0.31
2019-01-03T10:19:51.538Z,0.25
2019-01-03T10:20:51.668Z,0.31
2019-01-03T10:21:51.710Z,0.31
2019-01-03T10:22:51.563Z,0.31
2019-01-03T10:23:52.066Z,0.37
2019-01-03T10:24:51.714Z,0.44
2019-01-03T10:25:52.492Z,0.44
2019-01-03T10:26:52.006Z,0.44
2019-01-03T10:27:51.640Z,0.44
2019-01-03T10:28:51.644Z,0.44
2019-01-03T10:29:51.817Z,0.44
2019-01-03T10:30:51.641Z,0.5
2019-01-03T10:31:51.895Z,0.56
2019-01-03T10:32:51.539Z,0.5
2019-01-03T10:33:51.565Z,0.5
2019-01-03T10:34:52.696Z,0.5
2019-01-03T10:35:51.868Z,0.56
2019-01-03T10:36:51.597Z,0.56
2019-01-03T10:37:51.815Z,0.62
2019-01-03T10:38:51.816Z,0.62
2019-01-03T10:39:51.735Z,0.62
2019-01-03T10:40:51.729Z,0.62
2019-01-03T10:41:52.173Z,0.62
2019-01-03T10:42:51.538Z,0.62
2019-01-03T10:43:51.792Z,0.69
2019-01-03T10:44:51.811Z,0.69
2019-01-03T10:45:52.334Z,0.69
2019-01-03T10:46:51.673Z,0.69
2019-01-03T10:47:51.849Z,0.75
2019-01-03T10:48:51.549Z,0.69
2019-01-03T10:49:51.750Z,0.69
2019-01-03T10:50:51.477Z,0.62
2019-01-03T10:51:51.946Z,0.62
2019-01-03T10:52:52.328Z,0.62
2019-01-03T10:53:51.547Z,0.62
2019-01-03T10:54:51.845Z,0.69
2019-01-03T10:55:51.718Z,0.69
2019-01-03T10:56:51.700Z,0.62
2019-01-03T10:57:51.509Z,0.69
2019-01-03T10:58:52.155Z,0.62
2019-01-03T10:59:51.912Z,0.69
2019-01-03T11:00:52.035Z,0.62
2019-01-03T11:01:52.334Z,0.69
2019-01-03T11:02:52.066Z,0.69
2019-01-03T11:03:52.118Z,0.69
2019-01-03T11:04:51.536Z,0.69
2019-01-03T11:05:51.781Z,0.75
2019-01-03T11:06:51.670Z,0.75
2019-01-03T11:07:51.571Z,0.81
2019-01-03T11:08:51.709Z,0.75
2019-01-03T11:09:51.765Z,0.81
2019-01-03T11:10:52.048Z,0.81
2019-01-03T11:11:51.835Z,0.81
2019-01-03T11:12:51.730Z,0.81
2019-01-03T11:13:51.846Z,0.81
2019-01-03T11:14:52.047Z,0.81
2019-01-03T11:15:51.835Z,0.81
2019-01-03T11:16:51.778Z,0.81
2019-01-03T11:17:51.827Z,0.81
2019-01-03T11:18:51.618Z,0.81
2019-01-03T11:19:51.772Z,0.88
2019-01-03T11:20:51.615Z,0.81
2019-01-03T11:21:51.756Z,0.81
2019-01-03T11:22:51.766Z,0.81
2019-01-03T11:23:51.801Z,0.81
2019-01-03T11:24:51.475Z,0.81
2019-01-03T11:25:51.715Z,0.88
2019-01-03T11:26:51.466Z,0.81
2019-01-03T11:27:51.596Z,0.88
2019-01-03T11:28:51.822Z,0.81
2019-01-03T11:29:51.590Z,0.88
2019-01-03T11:30:51.781Z,0.81
2019-01-03T11:31:52.306Z,0.88
2019-01-03T11:32:51.646Z,0.88
2019-01-03T11:33:51.650Z,0.88
2019-01-03T11:34:51.698Z,0.88
2019-01-03T11:35:51.583Z,0.88
2019-01-03T11:36:51.908Z,0.88
2019-01-03T11:37:51.664Z,0.81
2019-01-03T11:38:51.790Z,0.81
2019-01-03T11:39:51.476Z,0.81
2019-01-03T11:40:53.446Z,0.81
2019-01-03T11:41:52.051Z,0.81
2019-01-03T11:42:51.566Z,0.81
2019-01-03T11:43:51.796Z,0.81
2019-01-03T11:44:51.819Z,0.81
2019-01-03T11:45:51.823Z,0.81
2019-01-03T11:46:51.563Z,0.81
2019-01-03T11:47:51.768Z,0.81
2019-01-03T11:48:51.583Z,0.75
2019-01-03T11:49:51.485Z,0.88
2019-01-03T11:50:51.620Z,0.88
2019-01-03T11:51:51.521Z,0.88
2019-01-03T11:52:51.569Z,0.88
2019-01-03T11:53:51.472Z,0.88
2019-01-03T11:54:51.437Z,0.88
2019-01-03T11:55:52.208Z,0.88
2019-01-03T11:56:51.466Z,0.94
2019-01-03T11:57:51.584Z,0.94
2019-01-03T11:58:51.617Z,0.94
2019-01-03T11:59:51.609Z,0.94
2019-01-03T12:00:51.900Z,1
2019-01-03T12:01:51.449Z,1
2019-01-03T12:02:51.428Z,0.94
2019-01-03T12:03:51.510Z,0.94
2019-01-03T12:04:51.681Z,0.94
2019-01-03T12:05:51.445Z,0.94
2019-01-03T12:06:51.418Z,0.94
2019-01-03T12:07:51.527Z,0.94
2019-01-03T12:08:51.549Z,0.94
2019-01-03T12:09:52.072Z,0.88
2019-01-03T12:10:51.679Z,1
2019-01-03T12:11:51.523Z,0.94
2019-01-03T12:12:52.198Z,1
2019-01-03T12:13:52.370Z,1
2019-01-03T12:14:51.832Z,1
2019-01-03T12:15:51.738Z,1
2019-01-03T12:16:51.743Z,1
2019-01-03T12:17:52.195Z,1
2019-01-03T12:18:52.769Z,1
2019-01-03T12:19:51.676Z,1
2019-01-03T12:20:51.668Z,1.06
2019-01-03T12:21:51.579Z,1
2019-01-03T12:22:51.540Z,1.06
2019-01-03T12:23:51.377Z,1
2019-01-03T12:24:54.941Z,1
2019-01-03T12:25:51.661Z,0.94
2019-01-03T12:26:52.095Z,0.88
2019-01-03T12:27:55.341Z,0.88
2019-01-03T12:28:53.217Z,0.94
2019-01-03T12:29:51.689Z,0.88
2019-01-03T12:30:51.982Z,0.94
2019-01-03T12:31:51.560Z,0.94
2019-01-03T12:32:51.531Z,0.94
2019-01-03T12:33:52.239Z,0.94
2019-01-03T12:34:51.400Z,0.94
2019-01-03T12:35:51.493Z,0.94
2019-01-03T12:36:51.380Z,0.94
2019-01-03T12:37:51.724Z,0.94
2019-01-03T12:38:51.872Z,1
2019-01-03T12:39:51.810Z,0.94
2019-01-03T12:40:51.505Z,0.94
2019-01-03T12:41:51.614Z,0.94
2019-01-03T12:42:51.398Z,0.94
2019-01-03T12:43:51.900Z,0.94
2019-01-03T12:44:51.662Z,0.94
2019-01-03T12:45:51.476Z,1
2019-01-03T12:46:51.514Z,0.94
2019-01-03T12:47:51.405Z,1
2019-01-03T12:48:51.676Z,1
2019-01-03T12:49:51.567Z,1.06
2019-01-03T12:50:51.358Z,1
2019-01-03T12:51:51.826Z,1
2019-01-03T12:52:52.232Z,1
2019-01-03T12:53:51.570Z,1.06
2019-01-03T12:54:51.513Z,1.06
2019-01-03T12:55:51.470Z,1.06
2019-01-03T12:56:51.727Z,1.06
2019-01-03T12:57:52.217Z,1.06
2019-01-03T12:58:51.723Z,1.06
2019-01-03T12:59:51.848Z,1.06
2019-01-03T13:00:51.414Z,1.06
2019-01-03T13:01:51.797Z,1.12
2019-01-03T13:02:51.859Z,1.06
2019-01-03T13:03:51.388Z,1.12
2019-01-03T13:04:51.619Z,1.12
2019-01-03T13:05:51.350Z,1.06
2019-01-03T13:06:51.679Z,1.12
2019-01-03T13:07:51.772Z,1.12
2019-01-03T13:08:52.333Z,1.12